KMHR/MHR METAR and TAF weather

Enter ICAO airport designator
Station Type Date Time Source
KMHR METAR 2020/01/28 20:45 UTC NOAA

KMHR 282045Z 15008KT 10SM OVC021 14/11 A3031


Station Type Date Time Source
KMHR Decoded METAR 2020/01/28 20:45 UTC NOAA

Sacramento, Sacramento Mather Airport, CA, United States (KMHR) 38-33N 121-18W
Jan 28, 2020 - 03:45 PM EST / 2020.01.28 2045 UTC
Wind: from the SSE (150 degrees) at 9 MPH (8 KT):0
Visibility: 10 mile(s):0
Sky conditions: overcast
Temperature: 57 F (14 C)
Dew Point: 51 F (11 C)
Relative Humidity: 82%
Pressure (altimeter): 30.31 in. Hg (1026 hPa)
ob: KMHR 282045Z 15008KT 10SM OVC021 14/11 A3031
cycle: 21

Station Type Date Time Source
KMHR TAF 2020/01/28 18:34 UTC NOAA

TAF KMHR 281731Z 2818/2918 15006KT P6SM OVC060
FM290100 VRB04KT P6SM SCT250
AMD NOT SKED

Example: see airport list